sensor_id;sensor_type;location;lat;lon;timestamp;temperature;humidity
19829;DHT22;10075;50.924;4.396;2023-07-22T00:00:58;18.40;99.90
19829;DHT22;10075;50.924;4.396;2023-07-22T00:03:26;18.40;99.90
19829;DHT22;10075;50.924;4.396;2023-07-22T00:06:03;18.40;99.90
19829;DHT22;10075;50.924;4.396;2023-07-22T00:08:31;18.50;99.90
19829;DHT22;10075;50.924;4.396;2023-07-22T00:10:59;18.50;99.90
19829;DHT22;10075;50.924;4.396;2023-07-22T00:13:26;18.50;99.90
19829;DHT22;10075;50.924;4.396;2023-07-22T00:15:53;18.60;99.90
19829;DHT22;10075;50.924;4.396;2023-07-22T00:18:21;18.60;99.90
19829;DHT22;10075;50.924;4.396;2023-07-22T00:20:49;18.60;99.90
19829;DHT22;10075;50.924;4.396;2023-07-22T00:23:17;18.60;99.90
19829;DHT22;10075;50.924;4.396;2023-07-22T00:25:45;18.50;99.90
19829;DHT22;10075;50.924;4.396;2023-07-22T00:28:14;18.50;99.90
19829;DHT22;10075;50.924;4.396;2023-07-22T00:30:41;18.40;99.90
19829;DHT22;10075;50.924;4.396;2023-07-22T00:33:08;18.40;99.90
19829;DHT22;10075;50.924;4.396;2023-07-22T00:35:35;18.50;99.90
19829;DHT22;10075;50.924;4.396;2023-07-22T00:38:02;18.50;99.90
19829;DHT22;10075;50.924;4.396;2023-07-22T00:40:30;18.50;99.90
19829;DHT22;10075;50.924;4.396;2023-07-22T00:42:57;18.50;99.90
19829;DHT22;10075;50.924;4.396;2023-07-22T00:45:26;18.50;99.90
19829;DHT22;10075;50.924;4.396;2023-07-22T00:47:53;18.50;99.90
19829;DHT22;10075;50.924;4.396;2023-07-22T00:50:22;18.50;99.90
19829;DHT22;10075;50.924;4.396;2023-07-22T00:52:50;18.50;99.90
19829;DHT22;10075;50.924;4.396;2023-07-22T00:55:17;18.50;99.90
19829;DHT22;10075;50.924;4.396;2023-07-22T00:57:45;18.50;99.90
19829;DHT22;10075;50.924;4.396;2023-07-22T01:00:13;18.60;99.90
19829;DHT22;10075;50.924;4.396;2023-07-22T01:02:43;18.60;99.90
19829;DHT22;10075;50.924;4.396;2023-07-22T01:05:11;18.60;99.90
19829;DHT22;10075;50.924;4.396;2023-07-22T01:07:39;18.50;99.90
19829;DHT22;10075;50.924;4.396;2023-07-22T01:10:07;18.50;99.90
19829;DHT22;10075;50.924;4.396;2023-07-22T01:12:35;18.50;99.90
19829;DHT22;10075;50.924;4.396;2023-07-22T01:15:02;18.50;99.90
19829;DHT22;10075;50.924;4.396;2023-07-22T01:17:33;18.50;99.90
19829;DHT22;10075;50.924;4.396;2023-07-22T01:20:02;18.40;99.90
19829;DHT22;10075;50.924;4.396;2023-07-22T01:22:29;18.40;99.90
19829;DHT22;10075;50.924;4.396;2023-07-22T01:24:58;18.40;99.90
19829;DHT22;10075;50.924;4.396;2023-07-22T01:27:25;18.40;99.90
19829;DHT22;10075;50.924;4.396;2023-07-22T01:29:52;18.30;99.90
19829;DHT22;10075;50.924;4.396;2023-07-22T01:32:19;18.30;99.90
19829;DHT22;10075;50.924;4.396;2023-07-22T01:34:46;18.30;99.90
19829;DHT22;10075;50.924;4.396;2023-07-22T01:37:13;18.20;99.90
19829;DHT22;10075;50.924;4.396;2023-07-22T01:39:40;18.20;99.90
19829;DHT22;10075;50.924;4.396;2023-07-22T01:42:08;18.20;99.90
19829;DHT22;10075;50.924;4.396;2023-07-22T01:44:35;18.20;99.90
19829;DHT22;10075;50.924;4.396;2023-07-22T01:47:03;18.00;99.90
19829;DHT22;10075;50.924;4.396;2023-07-22T01:49:30;18.00;99.90
19829;DHT22;10075;50.924;4.396;2023-07-22T01:51:57;17.90;99.90
19829;DHT22;10075;50.924;4.396;2023-07-22T01:54:23;17.80;99.90
19829;DHT22;10075;50.924;4.396;2023-07-22T01:56:50;17.80;99.90
19829;DHT22;10075;50.924;4.396;2023-07-22T01:59:19;17.80;99.90
19829;DHT22;10075;50.924;4.396;2023-07-22T02:01:46;17.60;99.90
19829;DHT22;10075;50.924;4.396;2023-07-22T02:04:13;17.60;99.90
19829;DHT22;10075;50.924;4.396;2023-07-22T02:06:40;17.40;99.90
19829;DHT22;10075;50.924;4.396;2023-07-22T02:09:07;17.30;99.90
19829;DHT22;10075;50.924;4.396;2023-07-22T02:11:35;17.20;99.90
19829;DHT22;10075;50.924;4.396;2023-07-22T02:14:02;17.20;99.90
19829;DHT22;10075;50.924;4.396;2023-07-22T02:16:33;17.20;99.90
19829;DHT22;10075;50.924;4.396;2023-07-22T02:19:01;17.10;99.90
19829;DHT22;10075;50.924;4.396;2023-07-22T02:21:28;17.00;99.90
19829;DHT22;10075;50.924;4.396;2023-07-22T02:23:55;17.00;99.90
19829;DHT22;10075;50.924;4.396;2023-07-22T02:26:22;17.00;99.90
19829;DHT22;10075;50.924;4.396;2023-07-22T02:28:49;16.90;99.90
19829;DHT22;10075;50.924;4.396;2023-07-22T02:31:16;16.90;99.90
19829;DHT22;10075;50.924;4.396;2023-07-22T02:33:44;16.90;99.90
19829;DHT22;10075;50.924;4.396;2023-07-22T02:36:12;16.80;99.90
19829;DHT22;10075;50.924;4.396;2023-07-22T02:38:39;16.80;99.90
19829;DHT22;10075;50.924;4.396;2023-07-22T02:41:06;16.90;99.90
19829;DHT22;10075;50.924;4.396;2023-07-22T02:43:34;16.80;99.90
19829;DHT22;10075;50.924;4.396;2023-07-22T02:46:02;16.80;99.90
19829;DHT22;10075;50.924;4.396;2023-07-22T02:48:30;16.80;99.90
19829;DHT22;10075;50.924;4.396;2023-07-22T02:51:04;16.80;99.90
19829;DHT22;10075;50.924;4.396;2023-07-22T02:53:31;16.70;99.90
19829;DHT22;10075;50.924;4.396;2023-07-22T02:55:58;16.80;99.90
19829;DHT22;10075;50.924;4.396;2023-07-22T02:58:25;16.80;99.90
19829;DHT22;10075;50.924;4.396;2023-07-22T03:00:52;16.80;99.90
19829;DHT22;10075;50.924;4.396;2023-07-22T03:03:19;16.80;99.90
19829;DHT22;10075;50.924;4.396;2023-07-22T03:05:46;16.80;99.90
19829;DHT22;10075;50.924;4.396;2023-07-22T03:08:16;16.80;99.90
19829;DHT22;10075;50.924;4.396;2023-07-22T03:10:44;16.80;99.90
19829;DHT22;10075;50.924;4.396;2023-07-22T03:13:14;16.80;99.90
19829;DHT22;10075;50.924;4.396;2023-07-22T03:15:41;16.80;99.90
19829;DHT22;10075;50.924;4.396;2023-07-22T03:18:08;16.80;99.90
19829;DHT22;10075;50.924;4.396;2023-07-22T03:20:35;16.80;99.90
19829;DHT22;10075;50.924;4.396;2023-07-22T03:23:03;16.70;99.90
19829;DHT22;10075;50.924;4.396;2023-07-22T03:25:32;16.70;99.90
19829;DHT22;10075;50.924;4.396;2023-07-22T03:28:01;16.70;99.90
19829;DHT22;10075;50.924;4.396;2023-07-22T03:30:29;16.60;99.90
19829;DHT22;10075;50.924;4.396;2023-07-22T03:32:56;16.50;99.90
19829;DHT22;10075;50.924;4.396;2023-07-22T03:35:23;16.60;99.90
19829;DHT22;10075;50.924;4.396;2023-07-22T03:37:50;16.50;99.90
19829;DHT22;10075;50.924;4.396;2023-07-22T03:40:17;16.50;99.90
19829;DHT22;10075;50.924;4.396;2023-07-22T03:42:46;16.50;99.90
19829;DHT22;10075;50.924;4.396;2023-07-22T03:45:14;16.50;99.90
19829;DHT22;10075;50.924;4.396;2023-07-22T03:47:41;16.40;99.90
19829;DHT22;10075;50.924;4.396;2023-07-22T03:50:08;16.40;99.90
19829;DHT22;10075;50.924;4.396;2023-07-22T03:52:35;16.30;99.90
19829;DHT22;10075;50.924;4.396;2023-07-22T03:55:03;16.30;99.90
19829;DHT22;10075;50.924;4.396;2023-07-22T03:57:31;16.20;99.90
19829;DHT22;10075;50.924;4.396;2023-07-22T03:59:59;16.20;99.90
19829;DHT22;10075;50.924;4.396;2023-07-22T04:02:26;16.20;99.90
19829;DHT22;10075;50.924;4.396;2023-07-22T04:04:54;16.20;99.90
19829;DHT22;10075;50.924;4.396;2023-07-22T04:07:21;16.20;99.90
19829;DHT22;10075;50.924;4.396;2023-07-22T04:09:48;16.20;99.90
19829;DHT22;10075;50.924;4.396;2023-07-22T04:12:15;16.20;99.90
19829;DHT22;10075;50.924;4.396;2023-07-22T04:14:42;16.20;99.90
19829;DHT22;10075;50.924;4.396;2023-07-22T04:17:10;16.20;99.90
19829;DHT22;10075;50.924;4.396;2023-07-22T04:19:37;16.30;99.90
19829;DHT22;10075;50.924;4.396;2023-07-22T04:22:05;16.30;99.90
19829;DHT22;10075;50.924;4.396;2023-07-22T04:24:33;16.30;99.90
19829;DHT22;10075;50.924;4.396;2023-07-22T04:27:00;16.30;99.90
19829;DHT22;10075;50.924;4.396;2023-07-22T04:29:28;16.40;99.90
19829;DHT22;10075;50.924;4.396;2023-07-22T04:31:57;16.50;99.90
19829;DHT22;10075;50.924;4.396;2023-07-22T04:34:28;16.60;99.90
19829;DHT22;10075;50.924;4.396;2023-07-22T04:36:55;16.70;99.90
19829;DHT22;10075;50.924;4.396;2023-07-22T04:39:23;16.70;99.90
19829;DHT22;10075;50.924;4.396;2023-07-22T04:41:50;16.80;99.90
19829;DHT22;10075;50.924;4.396;2023-07-22T04:44:17;16.90;99.90
19829;DHT22;10075;50.924;4.396;2023-07-22T04:46:44;16.90;99.90
19829;DHT22;10075;50.924;4.396;2023-07-22T04:49:11;17.00;99.90
19829;DHT22;10075;50.924;4.396;2023-07-22T04:51:40;17.00;99.90
19829;DHT22;10075;50.924;4.396;2023-07-22T04:54:06;17.00;99.90
19829;DHT22;10075;50.924;4.396;2023-07-22T04:56:33;16.90;99.90
19829;DHT22;10075;50.924;4.396;2023-07-22T04:59:00;16.90;99.90
19829;DHT22;10075;50.924;4.396;2023-07-22T05:01:28;16.90;99.90
19829;DHT22;10075;50.924;4.396;2023-07-22T05:03:55;16.90;99.90
19829;DHT22;10075;50.924;4.396;2023-07-22T05:06:23;16.90;99.90
19829;DHT22;10075;50.924;4.396;2023-07-22T05:08:52;16.80;99.90
19829;DHT22;10075;50.924;4.396;2023-07-22T05:11:18;16.80;99.90
19829;DHT22;10075;50.924;4.396;2023-07-22T05:13:45;16.80;99.90
19829;DHT22;10075;50.924;4.396;2023-07-22T05:16:12;16.80;99.90
19829;DHT22;10075;50.924;4.396;2023-07-22T05:18:39;16.70;99.90
19829;DHT22;10075;50.924;4.396;2023-07-22T05:21:06;16.80;99.90
19829;DHT22;10075;50.924;4.396;2023-07-22T05:23:34;16.80;99.90
19829;DHT22;10075;50.924;4.396;2023-07-22T05:26:02;16.80;99.90
19829;DHT22;10075;50.924;4.396;2023-07-22T05:28:29;16.80;99.90
19829;DHT22;10075;50.924;4.396;2023-07-22T05:30:56;16.80;99.90
19829;DHT22;10075;50.924;4.396;2023-07-22T05:33:23;16.80;99.90
19829;DHT22;10075;50.924;4.396;2023-07-22T05:35:50;16.80;99.90
19829;DHT22;10075;50.924;4.396;2023-07-22T05:38:17;16.90;99.90
19829;DHT22;10075;50.924;4.396;2023-07-22T05:40:44;17.00;99.90
19829;DHT22;10075;50.924;4.396;2023-07-22T05:43:12;17.00;99.90
19829;DHT22;10075;50.924;4.396;2023-07-22T05:45:39;17.20;99.90
19829;DHT22;10075;50.924;4.396;2023-07-22T05:48:06;17.30;99.90
19829;DHT22;10075;50.924;4.396;2023-07-22T05:50:33;17.30;99.90
19829;DHT22;10075;50.924;4.396;2023-07-22T05:53:00;17.30;99.90
19829;DHT22;10075;50.924;4.396;2023-07-22T05:55:27;17.40;99.90
19829;DHT22;10075;50.924;4.396;2023-07-22T05:57:54;17.50;99.90
19829;DHT22;10075;50.924;4.396;2023-07-22T06:00:22;17.60;99.90
19829;DHT22;10075;50.924;4.396;2023-07-22T06:02:49;17.80;99.90
19829;DHT22;10075;50.924;4.396;2023-07-22T06:05:16;18.00;99.90
19829;DHT22;10075;50.924;4.396;2023-07-22T06:07:43;18.20;99.90
19829;DHT22;10075;50.924;4.396;2023-07-22T06:10:10;18.30;99.90
19829;DHT22;10075;50.924;4.396;2023-07-22T06:12:37;18.40;99.90
19829;DHT22;10075;50.924;4.396;2023-07-22T06:15:05;18.50;99.90
19829;DHT22;10075;50.924;4.396;2023-07-22T06:17:34;18.70;99.90
19829;DHT22;10075;50.924;4.396;2023-07-22T06:20:01;18.90;99.90
19829;DHT22;10075;50.924;4.396;2023-07-22T06:22:28;19.10;99.90
19829;DHT22;10075;50.924;4.396;2023-07-22T06:24:55;19.30;99.90
19829;DHT22;10075;50.924;4.396;2023-07-22T06:27:21;19.40;99.90
19829;DHT22;10075;50.924;4.396;2023-07-22T06:29:48;19.50;99.90
19829;DHT22;10075;50.924;4.396;2023-07-22T06:32:15;19.50;99.90
19829;DHT22;10075;50.924;4.396;2023-07-22T06:34:44;19.50;99.90
19829;DHT22;10075;50.924;4.396;2023-07-22T06:37:10;19.50;99.90
19829;DHT22;10075;50.924;4.396;2023-07-22T06:39:37;19.50;99.90
19829;DHT22;10075;50.924;4.396;2023-07-22T06:42:05;19.50;99.90
19829;DHT22;10075;50.924;4.396;2023-07-22T06:44:32;19.50;99.90
19829;DHT22;10075;50.924;4.396;2023-07-22T06:46:59;19.60;99.90
19829;DHT22;10075;50.924;4.396;2023-07-22T06:49:26;19.60;99.90
19829;DHT22;10075;50.924;4.396;2023-07-22T06:51:54;19.50;99.90
19829;DHT22;10075;50.924;4.396;2023-07-22T06:54:21;19.50;99.90
19829;DHT22;10075;50.924;4.396;2023-07-22T06:56:48;19.50;99.90
19829;DHT22;10075;50.924;4.396;2023-07-22T06:59:15;19.50;99.90
19829;DHT22;10075;50.924;4.396;2023-07-22T07:01:42;19.60;99.90
19829;DHT22;10075;50.924;4.396;2023-07-22T07:04:09;19.70;99.90
19829;DHT22;10075;50.924;4.396;2023-07-22T07:06:36;19.70;99.90
19829;DHT22;10075;50.924;4.396;2023-07-22T07:09:05;19.60;99.90
19829;DHT22;10075;50.924;4.396;2023-07-22T07:11:32;19.80;99.90
19829;DHT22;10075;50.924;4.396;2023-07-22T07:13:59;19.80;99.90
19829;DHT22;10075;50.924;4.396;2023-07-22T07:16:27;19.90;99.90
19829;DHT22;10075;50.924;4.396;2023-07-22T07:18:54;20.00;99.90
19829;DHT22;10075;50.924;4.396;2023-07-22T07:21:21;20.00;99.90
19829;DHT22;10075;50.924;4.396;2023-07-22T07:23:50;20.10;99.90
19829;DHT22;10075;50.924;4.396;2023-07-22T07:26:19;20.30;99.90
19829;DHT22;10075;50.924;4.396;2023-07-22T07:28:46;20.40;99.90
19829;DHT22;10075;50.924;4.396;2023-07-22T07:31:13;20.50;99.90
19829;DHT22;10075;50.924;4.396;2023-07-22T07:33:40;20.50;99.90
19829;DHT22;10075;50.924;4.396;2023-07-22T07:36:07;20.40;99.90
19829;DHT22;10075;50.924;4.396;2023-07-22T07:38:34;20.50;99.90
19829;DHT22;10075;50.924;4.396;2023-07-22T07:41:03;20.50;99.90
19829;DHT22;10075;50.924;4.396;2023-07-22T07:43:31;20.60;99.90
19829;DHT22;10075;50.924;4.396;2023-07-22T07:46:19;20.60;99.90
19829;DHT22;10075;50.924;4.396;2023-07-22T07:48:48;20.50;99.90
19829;DHT22;10075;50.924;4.396;2023-07-22T07:51:16;20.30;99.90
19829;DHT22;10075;50.924;4.396;2023-07-22T07:53:44;20.30;99.90
19829;DHT22;10075;50.924;4.396;2023-07-22T07:56:13;20.20;99.90
19829;DHT22;10075;50.924;4.396;2023-07-22T07:58:41;20.10;99.90
19829;DHT22;10075;50.924;4.396;2023-07-22T08:01:09;20.00;99.90
19829;DHT22;10075;50.924;4.396;2023-07-22T08:03:37;20.10;99.90
19829;DHT22;10075;50.924;4.396;2023-07-22T08:06:05;20.20;99.90
19829;DHT22;10075;50.924;4.396;2023-07-22T08:08:32;20.30;99.90
19829;DHT22;10075;50.924;4.396;2023-07-22T08:11:00;20.60;99.90
19829;DHT22;10075;50.924;4.396;2023-07-22T08:13:27;20.90;99.90
19829;DHT22;10075;50.924;4.396;2023-07-22T08:15:57;21.10;99.90
19829;DHT22;10075;50.924;4.396;2023-07-22T08:18:24;21.30;99.90
19829;DHT22;10075;50.924;4.396;2023-07-22T08:20:51;21.40;99.90
19829;DHT22;10075;50.924;4.396;2023-07-22T08:23:19;21.50;99.90
19829;DHT22;10075;50.924;4.396;2023-07-22T08:25:46;21.60;99.90
19829;DHT22;10075;50.924;4.396;2023-07-22T08:28:13;21.70;99.90
19829;DHT22;10075;50.924;4.396;2023-07-22T08:30:40;21.70;99.90
19829;DHT22;10075;50.924;4.396;2023-07-22T08:33:09;21.70;99.90
19829;DHT22;10075;50.924;4.396;2023-07-22T08:35:37;21.70;99.90
19829;DHT22;10075;50.924;4.396;2023-07-22T08:38:04;21.50;99.90
19829;DHT22;10075;50.924;4.396;2023-07-22T08:40:34;21.50;99.90
19829;DHT22;10075;50.924;4.396;2023-07-22T08:43:02;21.40;99.90
19829;DHT22;10075;50.924;4.396;2023-07-22T08:45:32;21.40;99.90
19829;DHT22;10075;50.924;4.396;2023-07-22T08:48:02;21.40;99.90
19829;DHT22;10075;50.924;4.396;2023-07-22T08:50:37;21.20;99.90
19829;DHT22;10075;50.924;4.396;2023-07-22T08:53:06;21.10;99.90
19829;DHT22;10075;50.924;4.396;2023-07-22T08:55:33;21.10;99.90
19829;DHT22;10075;50.924;4.396;2023-07-22T08:58:02;21.00;99.90
19829;DHT22;10075;50.924;4.396;2023-07-22T09:00:29;21.00;99.90
19829;DHT22;10075;50.924;4.396;2023-07-22T09:02:57;21.00;99.90
19829;DHT22;10075;50.924;4.396;2023-07-22T09:05:25;21.10;99.90
19829;DHT22;10075;50.924;4.396;2023-07-22T09:07:54;21.20;99.90
19829;DHT22;10075;50.924;4.396;2023-07-22T09:10:23;21.30;99.90
19829;DHT22;10075;50.924;4.396;2023-07-22T09:12:51;21.30;99.90
19829;DHT22;10075;50.924;4.396;2023-07-22T09:15:18;21.40;99.90
19829;DHT22;10075;50.924;4.396;2023-07-22T09:17:46;21.50;99.90
19829;DHT22;10075;50.924;4.396;2023-07-22T09:20:14;21.50;99.90
19829;DHT22;10075;50.924;4.396;2023-07-22T09:22:43;21.60;99.90
19829;DHT22;10075;50.924;4.396;2023-07-22T09:25:17;21.70;99.90
19829;DHT22;10075;50.924;4.396;2023-07-22T09:27:44;21.70;99.90
19829;DHT22;10075;50.924;4.396;2023-07-22T09:30:22;21.80;99.90
19829;DHT22;10075;50.924;4.396;2023-07-22T09:32:50;21.90;99.90
19829;DHT22;10075;50.924;4.396;2023-07-22T09:35:17;22.00;99.90
19829;DHT22;10075;50.924;4.396;2023-07-22T09:37:44;22.10;99.90
19829;DHT22;10075;50.924;4.396;2023-07-22T09:40:17;22.10;99.90
19829;DHT22;10075;50.924;4.396;2023-07-22T09:42:49;22.10;99.90
19829;DHT22;10075;50.924;4.396;2023-07-22T09:45:17;22.30;99.90
19829;DHT22;10075;50.924;4.396;2023-07-22T09:47:45;22.50;99.90
19829;DHT22;10075;50.924;4.396;2023-07-22T09:50:14;22.60;99.90
19829;DHT22;10075;50.924;4.396;2023-07-22T09:52:53;22.60;99.90
19829;DHT22;10075;50.924;4.396;2023-07-22T09:55:22;22.80;99.90
19829;DHT22;10075;50.924;4.396;2023-07-22T09:57:53;22.90;99.90
19829;DHT22;10075;50.924;4.396;2023-07-22T10:00:21;23.00;99.90
19829;DHT22;10075;50.924;4.396;2023-07-22T10:02:52;22.90;99.90
19829;DHT22;10075;50.924;4.396;2023-07-22T10:05:19;22.90;99.90
19829;DHT22;10075;50.924;4.396;2023-07-22T10:07:49;22.80;99.90
19829;DHT22;10075;50.924;4.396;2023-07-22T10:10:17;22.70;99.90
19829;DHT22;10075;50.924;4.396;2023-07-22T10:12:46;22.50;99.90
19829;DHT22;10075;50.924;4.396;2023-07-22T10:15:15;22.60;99.90
19829;DHT22;10075;50.924;4.396;2023-07-22T10:17:44;22.80;99.90
19829;DHT22;10075;50.924;4.396;2023-07-22T10:20:12;23.00;99.90
19829;DHT22;10075;50.924;4.396;2023-07-22T10:22:43;23.20;99.70
19829;DHT22;10075;50.924;4.396;2023-07-22T10:25:11;23.30;98.90
19829;DHT22;10075;50.924;4.396;2023-07-22T10:27:39;23.50;97.60
19829;DHT22;10075;50.924;4.396;2023-07-22T10:30:10;23.50;96.80
19829;DHT22;10075;50.924;4.396;2023-07-22T10:32:38;23.50;96.40
19829;DHT22;10075;50.924;4.396;2023-07-22T10:35:09;23.50;95.60
19829;DHT22;10075;50.924;4.396;2023-07-22T10:37:39;23.40;95.40
19829;DHT22;10075;50.924;4.396;2023-07-22T10:40:18;23.60;95.60
19829;DHT22;10075;50.924;4.396;2023-07-22T10:42:52;23.70;95.60
19829;DHT22;10075;50.924;4.396;2023-07-22T10:45:29;23.90;95.50
19829;DHT22;10075;50.924;4.396;2023-07-22T10:48:04;24.00;95.10
19829;DHT22;10075;50.924;4.396;2023-07-22T10:50:42;24.40;94.60
19829;DHT22;10075;50.924;4.396;2023-07-22T10:53:10;24.70;93.80
19829;DHT22;10075;50.924;4.396;2023-07-22T10:59:00;25.00;92.00
19829;DHT22;10075;50.924;4.396;2023-07-22T11:01:34;25.00;92.60
19829;DHT22;10075;50.924;4.396;2023-07-22T11:04:23;25.10;92.50
19829;DHT22;10075;50.924;4.396;2023-07-22T11:06:58;25.30;92.60
19829;DHT22;10075;50.924;4.396;2023-07-22T11:09:38;25.40;91.80
19829;DHT22;10075;50.924;4.396;2023-07-22T11:12:10;25.40;91.70
19829;DHT22;10075;50.924;4.396;2023-07-22T11:14:39;25.50;92.30
19829;DHT22;10075;50.924;4.396;2023-07-22T11:17:08;25.60;91.80
19829;DHT22;10075;50.924;4.396;2023-07-22T11:19:37;25.40;91.20
19829;DHT22;10075;50.924;4.396;2023-07-22T11:22:04;25.30;91.40
19829;DHT22;10075;50.924;4.396;2023-07-22T11:24:33;25.30;92.10
19829;DHT22;10075;50.924;4.396;2023-07-22T11:27:03;25.30;92.50
19829;DHT22;10075;50.924;4.396;2023-07-22T11:29:30;25.40;91.70
19829;DHT22;10075;50.924;4.396;2023-07-22T11:31:57;25.40;91.90
19829;DHT22;10075;50.924;4.396;2023-07-22T11:34:25;25.40;91.80
19829;DHT22;10075;50.924;4.396;2023-07-22T11:36:54;25.40;92.20
19829;DHT22;10075;50.924;4.396;2023-07-22T11:39:22;25.40;91.30
19829;DHT22;10075;50.924;4.396;2023-07-22T11:41:50;25.20;91.10
19829;DHT22;10075;50.924;4.396;2023-07-22T11:44:19;25.00;91.90
19829;DHT22;10075;50.924;4.396;2023-07-22T11:46:53;25.00;91.80
19829;DHT22;10075;50.924;4.396;2023-07-22T11:49:29;25.00;91.30
19829;DHT22;10075;50.924;4.396;2023-07-22T11:51:57;25.20;90.90
19829;DHT22;10075;50.924;4.396;2023-07-22T11:54:24;25.40;91.00
19829;DHT22;10075;50.924;4.396;2023-07-22T11:56:51;25.50;87.80
19829;DHT22;10075;50.924;4.396;2023-07-22T11:59:32;25.40;89.70
19829;DHT22;10075;50.924;4.396;2023-07-22T12:02:00;25.30;87.90
19829;DHT22;10075;50.924;4.396;2023-07-22T12:04:29;25.20;90.40
19829;DHT22;10075;50.924;4.396;2023-07-22T12:06:56;25.20;88.70
19829;DHT22;10075;50.924;4.396;2023-07-22T12:09:23;25.20;88.80
19829;DHT22;10075;50.924;4.396;2023-07-22T12:11:55;25.30;88.00
19829;DHT22;10075;50.924;4.396;2023-07-22T12:14:23;25.40;87.70
19829;DHT22;10075;50.924;4.396;2023-07-22T12:16:55;25.40;85.10
19829;DHT22;10075;50.924;4.396;2023-07-22T12:19:22;25.30;86.10
19829;DHT22;10075;50.924;4.396;2023-07-22T12:21:51;25.20;88.50
19829;DHT22;10075;50.924;4.396;2023-07-22T12:24:18;25.30;89.30
19829;DHT22;10075;50.924;4.396;2023-07-22T12:26:45;25.40;86.00
19829;DHT22;10075;50.924;4.396;2023-07-22T12:29:12;25.40;86.70
19829;DHT22;10075;50.924;4.396;2023-07-22T12:31:39;25.50;85.70
19829;DHT22;10075;50.924;4.396;2023-07-22T12:34:06;25.60;86.60
19829;DHT22;10075;50.924;4.396;2023-07-22T12:36:33;25.70;88.10
19829;DHT22;10075;50.924;4.396;2023-07-22T12:39:01;25.80;85.70
19829;DHT22;10075;50.924;4.396;2023-07-22T12:41:28;25.90;86.70
19829;DHT22;10075;50.924;4.396;2023-07-22T12:43:55;25.80;86.60
19829;DHT22;10075;50.924;4.396;2023-07-22T12:46:22;25.90;87.50
19829;DHT22;10075;50.924;4.396;2023-07-22T12:48:49;25.90;85.80
19829;DHT22;10075;50.924;4.396;2023-07-22T12:51:16;26.00;83.90
19829;DHT22;10075;50.924;4.396;2023-07-22T12:53:43;26.20;83.80
19829;DHT22;10075;50.924;4.396;2023-07-22T12:56:11;26.40;82.20
19829;DHT22;10075;50.924;4.396;2023-07-22T12:58:38;26.60;82.00
19829;DHT22;10075;50.924;4.396;2023-07-22T13:01:05;26.90;81.40
19829;DHT22;10075;50.924;4.396;2023-07-22T13:03:33;27.00;78.80
19829;DHT22;10075;50.924;4.396;2023-07-22T13:06:00;26.80;78.20
19829;DHT22;10075;50.924;4.396;2023-07-22T13:08:27;26.50;79.80
19829;DHT22;10075;50.924;4.396;2023-07-22T13:10:54;26.20;81.00
19829;DHT22;10075;50.924;4.396;2023-07-22T13:13:22;26.20;82.70
19829;DHT22;10075;50.924;4.396;2023-07-22T13:15:49;26.30;82.50
19829;DHT22;10075;50.924;4.396;2023-07-22T13:18:16;26.50;82.70
19829;DHT22;10075;50.924;4.396;2023-07-22T13:20:43;26.60;81.10
19829;DHT22;10075;50.924;4.396;2023-07-22T13:23:10;26.40;79.90
19829;DHT22;10075;50.924;4.396;2023-07-22T13:25:37;26.30;81.00
19829;DHT22;10075;50.924;4.396;2023-07-22T13:28:04;26.10;82.00
19829;DHT22;10075;50.924;4.396;2023-07-22T13:30:32;26.20;83.20
19829;DHT22;10075;50.924;4.396;2023-07-22T13:32:59;26.50;82.70
19829;DHT22;10075;50.924;4.396;2023-07-22T13:35:26;26.80;82.40
19829;DHT22;10075;50.924;4.396;2023-07-22T13:37:53;27.00;80.80
19829;DHT22;10075;50.924;4.396;2023-07-22T13:40:20;27.00;81.60
19829;DHT22;10075;50.924;4.396;2023-07-22T13:42:47;27.00;80.40
19829;DHT22;10075;50.924;4.396;2023-07-22T13:45:14;26.90;80.90
19829;DHT22;10075;50.924;4.396;2023-07-22T13:47:42;26.70;82.60
19829;DHT22;10075;50.924;4.396;2023-07-22T13:50:10;26.50;82.00
19829;DHT22;10075;50.924;4.396;2023-07-22T13:52:37;26.10;83.20
19829;DHT22;10075;50.924;4.396;2023-07-22T13:55:04;25.90;84.70
19829;DHT22;10075;50.924;4.396;2023-07-22T13:57:31;25.80;84.50
19829;DHT22;10075;50.924;4.396;2023-07-22T13:59:58;25.50;85.70
19829;DHT22;10075;50.924;4.396;2023-07-22T14:02:25;25.40;84.50
19829;DHT22;10075;50.924;4.396;2023-07-22T14:04:53;25.30;86.30
19829;DHT22;10075;50.924;4.396;2023-07-22T14:07:20;25.10;86.20
19829;DHT22;10075;50.924;4.396;2023-07-22T14:09:47;24.90;86.20
19829;DHT22;10075;50.924;4.396;2023-07-22T14:12:14;24.80;86.80
19829;DHT22;10075;50.924;4.396;2023-07-22T14:14:41;24.40;88.30
19829;DHT22;10075;50.924;4.396;2023-07-22T14:17:08;24.20;89.30
19829;DHT22;10075;50.924;4.396;2023-07-22T14:19:35;24.10;90.10
19829;DHT22;10075;50.924;4.396;2023-07-22T14:22:04;24.00;90.20
19829;DHT22;10075;50.924;4.396;2023-07-22T14:24:31;24.10;90.20
19829;DHT22;10075;50.924;4.396;2023-07-22T14:26:57;23.90;90.30
19829;DHT22;10075;50.924;4.396;2023-07-22T14:29:24;23.70;90.50
19829;DHT22;10075;50.924;4.396;2023-07-22T14:31:51;23.40;91.10
19829;DHT22;10075;50.924;4.396;2023-07-22T14:34:18;23.10;91.40
19829;DHT22;10075;50.924;4.396;2023-07-22T14:36:45;22.90;92.20
19829;DHT22;10075;50.924;4.396;2023-07-22T14:39:13;22.90;92.50
19829;DHT22;10075;50.924;4.396;2023-07-22T14:41:41;23.00;92.40
19829;DHT22;10075;50.924;4.396;2023-07-22T14:44:09;23.10;92.50
19829;DHT22;10075;50.924;4.396;2023-07-22T14:46:36;23.40;92.50
19829;DHT22;10075;50.924;4.396;2023-07-22T14:49:04;23.60;92.10
19829;DHT22;10075;50.924;4.396;2023-07-22T14:51:35;23.80;91.50
19829;DHT22;10075;50.924;4.396;2023-07-22T14:54:02;23.80;91.90
19829;DHT22;10075;50.924;4.396;2023-07-22T14:56:30;23.90;91.80
19829;DHT22;10075;50.924;4.396;2023-07-22T14:58:57;24.20;91.60
19829;DHT22;10075;50.924;4.396;2023-07-22T15:01:24;24.50;91.00
19829;DHT22;10075;50.924;4.396;2023-07-22T15:03:51;25.00;91.30
19829;DHT22;10075;50.924;4.396;2023-07-22T15:06:18;25.60;90.10
19829;DHT22;10075;50.924;4.396;2023-07-22T15:08:45;26.20;89.10
19829;DHT22;10075;50.924;4.396;2023-07-22T15:11:11;26.80;88.40
19829;DHT22;10075;50.924;4.396;2023-07-22T15:13:40;27.30;85.60
19829;DHT22;10075;50.924;4.396;2023-07-22T15:16:07;27.80;85.90
19829;DHT22;10075;50.924;4.396;2023-07-22T15:18:34;28.20;83.80
19829;DHT22;10075;50.924;4.396;2023-07-22T15:21:00;28.00;82.20
19829;DHT22;10075;50.924;4.396;2023-07-22T15:23:27;27.40;83.10
19829;DHT22;10075;50.924;4.396;2023-07-22T15:25:54;26.60;83.60
19829;DHT22;10075;50.924;4.396;2023-07-22T15:28:21;26.10;85.60
19829;DHT22;10075;50.924;4.396;2023-07-22T15:30:49;25.80;87.50
19829;DHT22;10075;50.924;4.396;2023-07-22T15:33:16;25.60;87.90
19829;DHT22;10075;50.924;4.396;2023-07-22T15:35:43;25.30;89.60
19829;DHT22;10075;50.924;4.396;2023-07-22T15:38:10;25.30;89.30